Time;durP1;ratioP1;P1;durP2;ratioP2;P2;SDS_P1;SDS_P2;PMS_P1;PMS_P2;Temp;Humidity;BMP_temperature;BMP_pressure;BME280_temperature;BME280_humidity;BME280_pressure;Samples;Min_cycle;Max_cycle;Signal;HPM_P1;HPM_P2
2023/10/31 11:03:44;;;;;;;12.20;3.50;;;;;;;18.08;58.57;97723.98;102690;1286;636245;-78
2023/10/31 11:06:14;;;;;;;10.90;4.40;;;;;;;18.05;58.53;97720.21;104225;1268;94360;-81
2023/10/31 11:08:47;;;;;;;10.80;4.10;;;;;;;18.05;58.43;97716.66;104842;1265;94899;-78
2023/10/31 11:11:18;;;;;;;13.00;4.90;;;;;;;18.06;58.54;97717.79;104984;1263;106755;-79
2023/10/31 11:13:46;;;;;;;9.70;4.10;;;;;;;18.09;58.49;97711.36;105158;1264;95417;-78
2023/10/31 11:16:26;;;;;;;9.40;3.60;;;;;;;18.12;58.48;97712.45;104863;1257;198979;-79
2023/10/31 11:18:55;;;;;;;9.80;3.60;;;;;;;18.07;58.53;97710.68;105088;1260;94326;-78
2023/10/31 11:21:31;;;;;;;11.30;3.70;;;;;;;17.99;58.50;97706.98;105203;1253;94396;-80
2023/10/31 11:24:04;;;;;;;11.40;4.20;;;;;;;17.92;58.43;97700.13;105095;1270;107113;-79
2023/10/31 11:26:32;;;;;;;8.60;3.50;;;;;;;17.90;58.44;97702.01;105255;1259;94302;-79
2023/10/31 11:29:11;;;;;;;12.00;3.50;;;;;;;17.90;58.49;97701.63;104914;1262;107900;-80
2023/10/31 11:31:39;;;;;;;13.20;4.30;;;;;;;17.92;58.44;97694.74;104992;1260;95307;-78
2023/10/31 11:34:12;;;;;;;14.20;5.00;;;;;;;17.95;58.39;97692.20;105117;1261;95322;-79
2023/10/31 11:36:44;;;;;;;11.10;3.30;;;;;;;17.99;58.43;97684.14;105355;1261;109353;-79
2023/10/31 11:39:18;;;;;;;9.00;3.80;;;;;;;18.05;58.52;97682.73;105311;1253;95515;-79
2023/10/31 11:41:55;;;;;;;13.90;4.30;;;;;;;18.08;58.49;97683.28;105231;1261;107549;-80
2023/10/31 11:44:28;;;;;;;14.30;4.30;;;;;;;18.04;58.38;97667.58;105369;1260;95268;-77
2023/10/31 11:46:59;;;;;;;21.90;6.10;;;;;;;17.97;58.29;97675.63;105260;1254;95263;-80
2023/10/31 11:50:21;;;;;;;22.20;9.30;;;;;;;17.88;58.34;97671.36;105188;1261;108026;-79
2023/10/31 11:53:16;;;;;;;28.50;11.40;;;;;;;17.79;58.37;97679.52;105550;1272;95604;-79
2023/10/31 11:55:46;;;;;;;29.00;12.40;;;;;;;17.84;58.46;97685.28;105317;1260;107618;-79
2023/10/31 11:58:19;;;;;;;16.40;5.20;;;;;;;17.91;58.43;97687.40;105207;1259;95215;-79
2023/10/31 12:00:50;;;;;;;12.30;4.00;;;;;;;17.95;58.34;97689.00;105260;1259;95227;-79
2023/10/31 12:03:21;;;;;;;22.00;8.80;;;;;;;17.98;58.42;97686.67;105303;1261;108582;-78
2023/10/31 12:06:04;;;;;;;16.90;5.50;;;;;;;17.98;58.35;97683.19;105180;1260;95445;-79
2023/10/31 12:08:49;;;;;;;11.00;4.00;;;;;;;17.99;58.30;97693.94;105231;1255;107715;-78
2023/10/31 12:11:20;;;;;;;15.00;5.70;;;;;;;17.97;58.27;97697.34;105061;1263;95278;-79
2023/10/31 12:13:57;;;;;;;18.60;7.50;;;;;;;17.96;58.36;97699.48;105294;1261;95268;-79
2023/10/31 12:16:33;;;;;;;12.90;5.40;;;;;;;17.91;58.24;97690.35;105179;1261;108509;-80
2023/10/31 12:19:04;;;;;;;12.60;5.00;;;;;;;17.86;58.23;97689.09;105598;1259;95279;-78
2023/10/31 12:21:42;;;;;;;12.00;4.10;;;;;;;17.82;58.27;97684.39;105383;1259;107188;-78
2023/10/31 12:24:17;;;;;;;8.70;3.00;;;;;;;17.78;58.43;97674.77;105048;1262;95258;-80
2023/10/31 12:26:46;;;;;;;12.40;3.50;;;;;;;17.74;58.29;97681.36;105183;1263;96187;-79
2023/10/31 12:29:17;;;;;;;12.10;3.70;;;;;;;17.70;58.21;97683.53;105554;1265;107162;-78
2023/10/31 12:31:53;;;;;;;12.00;3.30;;;;;;;17.67;58.36;97681.34;105352;1259;96238;-79
2023/10/31 12:34:24;;;;;;;11.40;3.60;;;;;;;17.66;58.30;97680.05;105204;1273;107281;-79
2023/10/31 12:36:55;;;;;;;9.70;3.70;;;;;;;17.65;58.41;97674.02;105210;1270;95233;-79
2023/10/31 12:39:28;;;;;;;10.60;3.30;;;;;;;17.67;58.30;97673.61;105163;1258;95299;-78
2023/10/31 12:45:58;;;;;;;15.20;4.30;;;;;;;17.71;58.27;97674.06;104867;1260;96889;-79
2023/10/31 12:48:26;;;;;;;13.80;3.90;;;;;;;17.73;58.38;97672.45;104923;1262;107040;-81
2023/10/31 12:51:39;;;;;;;13.90;4.90;;;;;;;17.73;58.39;97668.90;104969;1262;95419;-78
2023/10/31 12:54:12;;;;;;;11.90;3.50;;;;;;;17.73;58.39;97663.27;105047;1262;95426;-78
2023/10/31 12:56:44;;;;;;;13.60;3.50;;;;;;;17.71;58.39;97653.75;104923;1267;108575;-80
2023/10/31 12:59:18;;;;;;;11.20;3.30;;;;;;;17.69;58.43;97652.00;104740;1273;95936;-78
2023/10/31 13:01:53;;;;;;;11.70;3.30;;;;;;;17.69;58.36;97654.89;104941;1257;107992;-79
2023/10/31 13:04:40;;;;;;;;;;;;;;;;;;;;;
2023/10/31 13:07:30;;;;;;;7.80;3.10;;;;;;;17.68;58.28;97659.92;104863;1271;95230;-79
2023/10/31 13:10:07;;;;;;;10.50;3.60;;;;;;;17.68;58.35;97667.09;104809;1267;109170;-79
2023/10/31 13:13:19;;;;;;;7.70;2.90;;;;;;;17.68;58.38;97662.49;104900;1260;96360;-80
2023/10/31 13:15:47;;;;;;;10.40;2.80;;;;;;;17.68;58.37;97665.02;105024;1264;107902;-80
2023/10/31 13:18:15;;;;;;;5.50;2.70;;;;;;;17.67;58.46;97663.81;105602;1253;95318;-78
2023/10/31 13:20:43;;;;;;;9.10;3.30;;;;;;;17.65;58.35;97667.55;105506;1258;95243;-78
2023/10/31 13:23:14;;;;;;;11.80;3.50;;;;;;;17.64;58.47;97677.92;105114;1270;107551;-78
2023/10/31 13:25:43;;;;;;;10.60;3.30;;;;;;;17.63;58.39;97675.01;105486;1260;95665;-77
2023/10/31 13:28:44;;;;;;;14.40;4.70;;;;;;;17.62;58.45;97678.52;105229;1259;108950;-78
2023/10/31 13:31:15;;;;;;;13.40;3.30;;;;;;;17.62;58.34;97676.91;105354;1269;95327;-79
2023/10/31 13:33:43;;;;;;;9.70;3.40;;;;;;;17.63;58.44;97680.96;105184;1262;95303;-78
2023/10/31 13:36:38;;;;;;;11.30;3.90;;;;;;;17.62;58.47;97679.98;105370;1257;108536;-78
2023/10/31 13:39:10;;;;;;;9.00;3.70;;;;;;;17.61;58.44;97674.61;105239;1260;95189;-79
2023/10/31 13:41:44;;;;;;;14.80;3.80;;;;;;;17.59;58.50;97676.46;105855;1259;107155;-79
2023/10/31 13:44:12;;;;;;;13.00;3.80;;;;;;;17.55;58.42;97671.54;105544;1267;95458;-79
2023/10/31 13:46:41;;;;;;;13.20;4.10;;;;;;;17.53;58.43;97664.98;105304;1263;95181;-80
2023/10/31 13:49:09;;;;;;;8.10;3.00;;;;;;;17.50;58.46;97659.02;105199;1260;108463;-80
2023/10/31 13:51:39;;;;;;;11.40;3.30;;;;;;;17.47;58.37;97648.27;105029;1260;96141;-80
2023/10/31 13:54:07;;;;;;;11.00;3.30;;;;;;;17.42;58.36;97645.02;104893;1263;107715;-79
2023/10/31 13:56:37;;;;;;;7.20;2.60;;;;;;;17.38;58.40;97641.95;104881;1268;95796;-79
2023/10/31 13:59:05;;;;;;;13.10;4.60;;;;;;;17.32;58.53;97635.36;105097;1262;95323;-79
2023/10/31 14:01:54;;;;;;;9.90;3.50;;;;;;;17.25;58.54;97640.92;105636;1259;109121;-79
2023/10/31 14:04:26;;;;;;;14.60;3.90;;;;;;;17.22;58.60;97648.92;104982;1262;95260;-79
2023/10/31 14:06:57;;;;;;;12.70;3.50;;;;;;;17.18;58.55;97640.95;105371;1254;107188;-79
2023/10/31 14:09:29;;;;;;;8.80;3.90;;;;;;;17.13;58.57;97635.16;105178;1269;95275;-80
2023/10/31 14:11:58;;;;;;;12.20;3.30;;;;;;;17.07;58.59;97636.53;105270;1254;95331;-80
2023/10/31 14:14:26;;;;;;;12.30;3.50;;;;;;;17.02;58.60;97633.24;105242;1256;108368;-80
2023/10/31 14:16:57;;;;;;;11.20;3.70;;;;;;;16.95;58.60;97630.75;105163;1264;95279;-81
2023/10/31 14:19:26;;;;;;;10.00;3.10;;;;;;;16.89;58.62;97632.41;105177;1260;107363;-80
2023/10/31 14:21:54;;;;;;;14.00;3.90;;;;;;;16.85;58.74;97628.51;105225;1254;95422;-79
2023/10/31 14:24:22;;;;;;;13.20;4.00;;;;;;;16.78;58.55;97617.14;105222;1257;95314;-79
2023/10/31 14:26:51;;;;;;;18.20;5.20;;;;;;;16.73;58.75;97619.31;105185;1260;108198;-80
2023/10/31 14:29:22;;;;;;;18.60;5.60;;;;;;;16.67;58.60;97617.89;105258;1259;95428;-80
2023/10/31 14:31:50;;;;;;;17.80;5.10;;;;;;;16.62;58.70;97610.05;105264;1257;107602;-79
2023/10/31 14:34:23;;;;;;;17.50;4.80;;;;;;;16.57;58.60;97612.90;104904;1264;96248;-80
2023/10/31 14:36:51;;;;;;;16.70;5.10;;;;;;;16.50;58.59;97621.69;105381;1257;95348;-80
2023/10/31 14:39:19;;;;;;;18.90;5.70;;;;;;;16.43;58.71;97625.20;105137;1260;108748;-77
2023/10/31 14:41:47;;;;;;;18.40;5.50;;;;;;;16.38;58.65;97607.70;105388;1260;95233;-80
2023/10/31 14:44:16;;;;;;;14.50;5.00;;;;;;;16.33;58.81;97605.68;105770;1267;109406;-79
2023/10/31 14:46:46;;;;;;;15.40;3.70;;;;;;;16.28;58.68;97605.63;105439;1257;96209;-78
2023/10/31 14:49:19;;;;;;;16.20;4.60;;;;;;;16.24;58.74;97604.86;105479;1254;95262;-78
2023/10/31 14:51:49;;;;;;;12.60;4.20;;;;;;;16.19;58.76;97611.64;108773;1254;108790;-79
2023/10/31 14:54:19;;;;;;;12.30;4.60;;;;;;;16.16;58.74;97607.55;108626;1253;95505;-79
2023/10/31 14:56:47;;;;;;;13.10;3.80;;;;;;;16.13;58.86;97599.86;108551;1254;107679;-79
2023/10/31 14:59:15;;;;;;;12.80;3.80;;;;;;;16.10;58.88;97593.76;108580;1253;92838;-79
2023/10/31 15:01:46;;;;;;;10.70;3.80;;;;;;;16.08;58.87;97580.73;108702;1255;92897;-79
2023/10/31 15:04:16;;;;;;;15.30;5.10;;;;;;;16.06;58.88;97583.77;108649;1253;106630;-79
2023/10/31 15:06:44;;;;;;;16.70;5.20;;;;;;;16.06;58.92;97582.00;108744;1253;94526;-79
2023/10/31 15:09:32;;;;;;;13.60;4.40;;;;;;;16.06;59.07;97583.67;108671;1254;110245;-79
2023/10/31 15:12:02;;;;;;;12.90;4.50;;;;;;;16.06;59.06;97591.02;108564;1253;93242;-79
2023/10/31 15:14:33;;;;;;;17.90;5.50;;;;;;;16.06;59.09;97612.23;108529;1253;92984;-79
2023/10/31 15:17:02;;;;;;;13.20;4.70;;;;;;;16.07;59.09;97663.59;108550;1254;108636;-79
2023/10/31 15:19:33;;;;;;;16.20;5.60;;;;;;;16.09;59.23;97698.14;108685;1254;95166;-79
2023/10/31 15:22:01;;;;;;;24.70;8.60;;;;;;;16.11;59.22;97694.36;108466;1254;107674;-79
2023/10/31 15:24:30;;;;;;;24.70;8.50;;;;;;;16.12;59.33;97688.31;108541;1254;94235;-79
